الصفحة الرئيسية
METAR-TAF:

METAR-TAF

مطار :

East Jakarta, إندونيسيا

دائرة عرض: 06-15-59S, خط طول: 106-53-28E, ارتفاع: 25 متر

مراقبة الطقس الحالي

تاريخ ووقت الإصدار 4ساعات و 46 دقيقة قبل الساعة 13:00UTC
ريح 3 عقدة من الجنوب الشرقي
درجة الحرارة 26°درجة مئوية
الرطوبة 89%
ضغط 1012 hPa
الرؤية: 4000 متر
غيوم متفرقة على ارتفاع 1800 قدم
العجاج

METAR: WIHH 021300Z 13003KT 4000 HZ SCT018 26/24 Q1012 NOSIG

زمن: 00:46 (17:46 UTC)

توقعات

تاريخ ووقت الإصدار 46 دقيقة قبل الساعة 17:00UTC
التوقعات صالحة من02 الساعة 18 UTC إلى 03 الساعة 18 UTC
ريح 6 عقدة من الجنوب
الرؤية: 5000 متر
غيوم متفرقة على ارتفاع 2000 قدم
العجاج
أصبح
من 03 الساعة 02 UTC إلى 03 الساعة 04 UTC
ريح 10 عقدة من الشرق
الرؤية: 6000 متر

TAF: WIHH 021700Z 0218/0318 18006KT 5000 HZ SCT020 BECMG 0302/0304 09010KT 6000

أرصاد الطقس والتوقعات من أكثر من 4000 مطار (تقارير الطقس للمطار METAR والتنبؤ بالطقس بالمطارTAF).

المحطات المتاحة هي النقط الصفراء والحمراء على الخريطة.

حرك المؤشر فوق النقطة لمعرفة اسم المحطة.

ثم انقر لمعرفة أرصاد وتوقعات الطقس.

لتغيير الخارطة: اضغط على الأزرار الخضراء مع رمز الصليب الأسود للتكبير. على الزر الأخضر مع شرطة للتصغير، أو على الأسهم الخضراء للخرائط المجاورة.


METAR-TAF: